sensor_id;sensor_type;location;lat;lon;timestamp;temperature;humidity
18575;DHT22;9417;16.484;102.872;2023-12-20T00:00:26;21.50;86.30
18575;DHT22;9417;16.484;102.872;2023-12-20T00:02:33;21.40;86.10
18575;DHT22;9417;16.484;102.872;2023-12-20T00:04:41;21.40;86.10
18575;DHT22;9417;16.484;102.872;2023-12-20T00:06:48;21.40;86.40
18575;DHT22;9417;16.484;102.872;2023-12-20T00:08:54;21.40;86.80
18575;DHT22;9417;16.484;102.872;2023-12-20T00:11:02;21.40;86.90
18575;DHT22;9417;16.484;102.872;2023-12-20T00:13:10;21.40;86.40
18575;DHT22;9417;16.484;102.872;2023-12-20T00:15:17;21.40;85.80
18575;DHT22;9417;16.484;102.872;2023-12-20T00:17:24;21.40;85.50
18575;DHT22;9417;16.484;102.872;2023-12-20T00:19:31;21.40;85.30
18575;DHT22;9417;16.484;102.872;2023-12-20T00:21:39;21.50;84.90
18575;DHT22;9417;16.484;102.872;2023-12-20T00:23:46;21.50;84.90
18575;DHT22;9417;16.484;102.872;2023-12-20T00:25:53;21.50;85.20
18575;DHT22;9417;16.484;102.872;2023-12-20T00:28:01;21.50;85.80
18575;DHT22;9417;16.484;102.872;2023-12-20T00:30:09;21.50;85.90
18575;DHT22;9417;16.484;102.872;2023-12-20T00:32:16;21.50;85.90
18575;DHT22;9417;16.484;102.872;2023-12-20T00:34:24;21.50;85.90
18575;DHT22;9417;16.484;102.872;2023-12-20T00:36:31;21.50;85.70
18575;DHT22;9417;16.484;102.872;2023-12-20T00:38:40;21.50;85.40
18575;DHT22;9417;16.484;102.872;2023-12-20T00:40:47;21.50;85.60
18575;DHT22;9417;16.484;102.872;2023-12-20T00:42:54;21.50;86.10
18575;DHT22;9417;16.484;102.872;2023-12-20T00:45:01;21.60;86.50
18575;DHT22;9417;16.484;102.872;2023-12-20T00:47:09;21.60;86.50
18575;DHT22;9417;16.484;102.872;2023-12-20T00:49:16;21.60;86.60
18575;DHT22;9417;16.484;102.872;2023-12-20T00:51:24;21.50;86.80
18575;DHT22;9417;16.484;102.872;2023-12-20T00:53:31;21.50;86.70
18575;DHT22;9417;16.484;102.872;2023-12-20T00:55:39;21.60;86.00
18575;DHT22;9417;16.484;102.872;2023-12-20T00:57:47;21.60;85.60
18575;DHT22;9417;16.484;102.872;2023-12-20T00:59:54;21.60;85.40
18575;DHT22;9417;16.484;102.872;2023-12-20T01:02:01;21.70;84.90
18575;DHT22;9417;16.484;102.872;2023-12-20T01:04:08;21.70;84.50
18575;DHT22;9417;16.484;102.872;2023-12-20T01:06:16;21.70;83.80
18575;DHT22;9417;16.484;102.872;2023-12-20T01:08:23;21.70;83.60
18575;DHT22;9417;16.484;102.872;2023-12-20T01:10:31;21.80;84.30
18575;DHT22;9417;16.484;102.872;2023-12-20T01:12:39;21.90;84.50
18575;DHT22;9417;16.484;102.872;2023-12-20T01:14:46;21.90;84.20
18575;DHT22;9417;16.484;102.872;2023-12-20T01:16:53;21.90;83.90
18575;DHT22;9417;16.484;102.872;2023-12-20T01:19:00;22.00;84.00
18575;DHT22;9417;16.484;102.872;2023-12-20T01:21:07;22.00;84.00
18575;DHT22;9417;16.484;102.872;2023-12-20T01:23:14;22.10;84.10
18575;DHT22;9417;16.484;102.872;2023-12-20T01:25:21;22.20;84.00
18575;DHT22;9417;16.484;102.872;2023-12-20T01:27:29;22.20;84.00
18575;DHT22;9417;16.484;102.872;2023-12-20T01:29:38;22.20;83.80
18575;DHT22;9417;16.484;102.872;2023-12-20T01:31:45;22.20;83.10
18575;DHT22;9417;16.484;102.872;2023-12-20T01:33:52;22.20;82.90
18575;DHT22;9417;16.484;102.872;2023-12-20T01:35:59;22.30;82.80
18575;DHT22;9417;16.484;102.872;2023-12-20T01:38:07;22.30;82.50
18575;DHT22;9417;16.484;102.872;2023-12-20T01:40:13;22.40;82.40
18575;DHT22;9417;16.484;102.872;2023-12-20T01:42:20;22.40;82.30
18575;DHT22;9417;16.484;102.872;2023-12-20T01:44:27;22.50;82.40
18575;DHT22;9417;16.484;102.872;2023-12-20T01:46:36;22.60;81.70
18575;DHT22;9417;16.484;102.872;2023-12-20T01:48:43;22.60;81.80
18575;DHT22;9417;16.484;102.872;2023-12-20T01:50:51;22.70;81.10
18575;DHT22;9417;16.484;102.872;2023-12-20T01:52:59;22.80;80.30
18575;DHT22;9417;16.484;102.872;2023-12-20T01:55:08;22.90;80.20
18575;DHT22;9417;16.484;102.872;2023-12-20T01:57:18;23.00;79.80
18575;DHT22;9417;16.484;102.872;2023-12-20T01:59:25;23.10;79.90
18575;DHT22;9417;16.484;102.872;2023-12-20T02:01:34;23.20;79.80
18575;DHT22;9417;16.484;102.872;2023-12-20T02:03:42;23.20;79.30
18575;DHT22;9417;16.484;102.872;2023-12-20T02:05:50;23.30;79.10
18575;DHT22;9417;16.484;102.872;2023-12-20T02:07:57;23.40;78.50
18575;DHT22;9417;16.484;102.872;2023-12-20T02:10:05;23.40;77.90
18575;DHT22;9417;16.484;102.872;2023-12-20T02:12:13;23.50;78.00
18575;DHT22;9417;16.484;102.872;2023-12-20T02:14:20;23.50;78.20
18575;DHT22;9417;16.484;102.872;2023-12-20T02:16:27;23.60;78.20
18575;DHT22;9417;16.484;102.872;2023-12-20T02:18:36;23.70;78.00
18575;DHT22;9417;16.484;102.872;2023-12-20T02:20:43;23.70;77.30
18575;DHT22;9417;16.484;102.872;2023-12-20T02:22:52;23.80;77.40
18575;DHT22;9417;16.484;102.872;2023-12-20T02:24:59;23.70;76.10
18575;DHT22;9417;16.484;102.872;2023-12-20T02:27:07;23.80;76.20
18575;DHT22;9417;16.484;102.872;2023-12-20T02:29:14;23.90;76.50
18575;DHT22;9417;16.484;102.872;2023-12-20T02:31:22;23.90;76.00
18575;DHT22;9417;16.484;102.872;2023-12-20T02:33:30;24.00;75.90
18575;DHT22;9417;16.484;102.872;2023-12-20T02:35:37;24.10;75.30
18575;DHT22;9417;16.484;102.872;2023-12-20T02:37:45;24.20;74.70
18575;DHT22;9417;16.484;102.872;2023-12-20T02:39:54;24.20;74.40
18575;DHT22;9417;16.484;102.872;2023-12-20T02:42:02;24.30;73.70
18575;DHT22;9417;16.484;102.872;2023-12-20T02:44:09;24.30;74.00
18575;DHT22;9417;16.484;102.872;2023-12-20T02:46:17;24.40;73.50
18575;DHT22;9417;16.484;102.872;2023-12-20T02:48:25;24.50;72.70
18575;DHT22;9417;16.484;102.872;2023-12-20T02:50:32;24.50;72.50
18575;DHT22;9417;16.484;102.872;2023-12-20T02:52:39;24.50;71.90
18575;DHT22;9417;16.484;102.872;2023-12-20T02:54:46;24.60;71.70
18575;DHT22;9417;16.484;102.872;2023-12-20T02:56:55;24.60;71.00
18575;DHT22;9417;16.484;102.872;2023-12-20T02:59:02;24.60;71.50
18575;DHT22;9417;16.484;102.872;2023-12-20T03:01:11;24.70;71.40
18575;DHT22;9417;16.484;102.872;2023-12-20T03:03:19;24.80;71.10
18575;DHT22;9417;16.484;102.872;2023-12-20T03:05:26;24.80;70.80
18575;DHT22;9417;16.484;102.872;2023-12-20T03:07:33;24.90;70.70
18575;DHT22;9417;16.484;102.872;2023-12-20T03:09:40;25.00;70.50
18575;DHT22;9417;16.484;102.872;2023-12-20T03:12:08;25.10;69.40
18575;DHT22;9417;16.484;102.872;2023-12-20T03:14:15;25.20;69.50
18575;DHT22;9417;16.484;102.872;2023-12-20T03:16:22;25.20;69.80
18575;DHT22;9417;16.484;102.872;2023-12-20T03:18:29;25.40;69.40
18575;DHT22;9417;16.484;102.872;2023-12-20T03:20:36;25.50;68.70
18575;DHT22;9417;16.484;102.872;2023-12-20T03:22:45;25.60;68.30
18575;DHT22;9417;16.484;102.872;2023-12-20T03:24:52;25.60;68.20
18575;DHT22;9417;16.484;102.872;2023-12-20T03:27:00;25.60;67.30
18575;DHT22;9417;16.484;102.872;2023-12-20T03:29:09;25.70;67.40
18575;DHT22;9417;16.484;102.872;2023-12-20T03:31:16;25.70;67.30
18575;DHT22;9417;16.484;102.872;2023-12-20T03:33:23;25.80;67.70
18575;DHT22;9417;16.484;102.872;2023-12-20T03:35:30;25.90;67.30
18575;DHT22;9417;16.484;102.872;2023-12-20T03:37:37;26.00;67.40
18575;DHT22;9417;16.484;102.872;2023-12-20T03:39:43;26.00;67.00
18575;DHT22;9417;16.484;102.872;2023-12-20T03:41:50;26.00;66.50
18575;DHT22;9417;16.484;102.872;2023-12-20T03:43:57;26.00;67.50
18575;DHT22;9417;16.484;102.872;2023-12-20T03:46:08;26.10;66.30
18575;DHT22;9417;16.484;102.872;2023-12-20T03:48:15;26.10;66.90
18575;DHT22;9417;16.484;102.872;2023-12-20T03:50:23;26.10;66.00
18575;DHT22;9417;16.484;102.872;2023-12-20T03:52:30;26.20;66.50
18575;DHT22;9417;16.484;102.872;2023-12-20T03:54:38;26.10;65.60
18575;DHT22;9417;16.484;102.872;2023-12-20T03:56:43;26.10;66.20
18575;DHT22;9417;16.484;102.872;2023-12-20T03:58:50;26.30;66.70
18575;DHT22;9417;16.484;102.872;2023-12-20T04:00:58;26.30;66.50
18575;DHT22;9417;16.484;102.872;2023-12-20T04:03:07;26.50;66.40
18575;DHT22;9417;16.484;102.872;2023-12-20T04:05:13;26.50;65.90
18575;DHT22;9417;16.484;102.872;2023-12-20T04:07:21;26.60;65.60
18575;DHT22;9417;16.484;102.872;2023-12-20T04:09:29;26.80;65.50
18575;DHT22;9417;16.484;102.872;2023-12-20T04:11:37;26.80;63.60
18575;DHT22;9417;16.484;102.872;2023-12-20T04:13:44;26.80;64.10
18575;DHT22;9417;16.484;102.872;2023-12-20T04:15:51;27.00;64.00
18575;DHT22;9417;16.484;102.872;2023-12-20T04:17:58;27.00;63.70
18575;DHT22;9417;16.484;102.872;2023-12-20T04:20:07;27.00;64.60
18575;DHT22;9417;16.484;102.872;2023-12-20T04:22:14;27.10;64.30
18575;DHT22;9417;16.484;102.872;2023-12-20T04:24:22;27.30;63.80
18575;DHT22;9417;16.484;102.872;2023-12-20T04:26:29;27.40;63.60
18575;DHT22;9417;16.484;102.872;2023-12-20T04:28:36;27.50;63.00
18575;DHT22;9417;16.484;102.872;2023-12-20T04:30:43;27.50;63.20
18575;DHT22;9417;16.484;102.872;2023-12-20T04:32:51;27.50;62.80
18575;DHT22;9417;16.484;102.872;2023-12-20T04:34:58;27.60;62.20
18575;DHT22;9417;16.484;102.872;2023-12-20T04:37:07;27.60;62.30
18575;DHT22;9417;16.484;102.872;2023-12-20T04:39:14;27.60;61.50
18575;DHT22;9417;16.484;102.872;2023-12-20T04:41:20;27.70;61.20
18575;DHT22;9417;16.484;102.872;2023-12-20T04:43:27;27.70;62.10
18575;DHT22;9417;16.484;102.872;2023-12-20T04:45:34;27.80;61.60
18575;DHT22;9417;16.484;102.872;2023-12-20T04:47:42;27.80;60.70
18575;DHT22;9417;16.484;102.872;2023-12-20T04:49:52;27.80;60.70
18575;DHT22;9417;16.484;102.872;2023-12-20T04:51:59;27.60;61.10
18575;DHT22;9417;16.484;102.872;2023-12-20T04:54:08;27.70;61.20
18575;DHT22;9417;16.484;102.872;2023-12-20T04:56:15;27.80;61.20
18575;DHT22;9417;16.484;102.872;2023-12-20T04:58:22;28.00;61.60
18575;DHT22;9417;16.484;102.872;2023-12-20T05:00:30;28.10;61.40
18575;DHT22;9417;16.484;102.872;2023-12-20T05:02:37;28.10;60.80
18575;DHT22;9417;16.484;102.872;2023-12-20T05:04:44;28.10;61.20
18575;DHT22;9417;16.484;102.872;2023-12-20T05:06:51;28.20;60.20
18575;DHT22;9417;16.484;102.872;2023-12-20T05:08:58;28.30;60.30
18575;DHT22;9417;16.484;102.872;2023-12-20T05:11:07;28.30;59.70
18575;DHT22;9417;16.484;102.872;2023-12-20T05:13:15;28.30;59.00
18575;DHT22;9417;16.484;102.872;2023-12-20T05:15:21;28.30;59.90
18575;DHT22;9417;16.484;102.872;2023-12-20T05:17:28;28.30;58.80
18575;DHT22;9417;16.484;102.872;2023-12-20T05:19:35;28.30;59.80
18575;DHT22;9417;16.484;102.872;2023-12-20T05:21:42;28.40;59.30
18575;DHT22;9417;16.484;102.872;2023-12-20T05:23:49;28.60;58.50
18575;DHT22;9417;16.484;102.872;2023-12-20T05:25:57;28.70;58.30
18575;DHT22;9417;16.484;102.872;2023-12-20T05:28:06;28.80;58.00
18575;DHT22;9417;16.484;102.872;2023-12-20T05:30:13;28.90;57.90
18575;DHT22;9417;16.484;102.872;2023-12-20T05:32:20;29.00;57.80
18575;DHT22;9417;16.484;102.872;2023-12-20T05:34:28;29.00;58.00
18575;DHT22;9417;16.484;102.872;2023-12-20T05:36:35;29.10;57.70
18575;DHT22;9417;16.484;102.872;2023-12-20T05:38:43;29.00;56.60
18575;DHT22;9417;16.484;102.872;2023-12-20T05:40:51;29.10;56.70
18575;DHT22;9417;16.484;102.872;2023-12-20T05:42:58;29.10;56.60
18575;DHT22;9417;16.484;102.872;2023-12-20T05:45:07;29.00;57.40
18575;DHT22;9417;16.484;102.872;2023-12-20T05:47:15;28.90;57.70
18575;DHT22;9417;16.484;102.872;2023-12-20T05:49:22;28.90;57.50
18575;DHT22;9417;16.484;102.872;2023-12-20T05:51:30;28.90;57.20
18575;DHT22;9417;16.484;102.872;2023-12-20T05:53:37;29.00;57.30
18575;DHT22;9417;16.484;102.872;2023-12-20T05:55:44;29.00;57.10
18575;DHT22;9417;16.484;102.872;2023-12-20T05:57:51;29.20;58.60
18575;DHT22;9417;16.484;102.872;2023-12-20T05:59:58;29.20;57.50
18575;DHT22;9417;16.484;102.872;2023-12-20T06:02:16;29.30;55.90
18575;DHT22;9417;16.484;102.872;2023-12-20T06:04:23;29.30;56.60
18575;DHT22;9417;16.484;102.872;2023-12-20T06:06:30;29.30;56.90
18575;DHT22;9417;16.484;102.872;2023-12-20T06:08:37;29.40;56.00
18575;DHT22;9417;16.484;102.872;2023-12-20T06:10:45;29.50;56.00
18575;DHT22;9417;16.484;102.872;2023-12-20T06:12:52;29.60;55.80
18575;DHT22;9417;16.484;102.872;2023-12-20T06:15:00;29.70;55.60
18575;DHT22;9417;16.484;102.872;2023-12-20T06:17:07;29.80;54.60
18575;DHT22;9417;16.484;102.872;2023-12-20T06:19:16;29.80;54.90
18575;DHT22;9417;16.484;102.872;2023-12-20T06:21:23;29.80;54.70
18575;DHT22;9417;16.484;102.872;2023-12-20T06:23:30;29.70;54.90
18575;DHT22;9417;16.484;102.872;2023-12-20T06:25:38;29.60;54.90
18575;DHT22;9417;16.484;102.872;2023-12-20T06:27:45;29.50;55.70
18575;DHT22;9417;16.484;102.872;2023-12-20T06:29:53;29.50;55.90
18575;DHT22;9417;16.484;102.872;2023-12-20T06:32:00;29.60;55.60
18575;DHT22;9417;16.484;102.872;2023-12-20T06:34:07;29.70;55.30
18575;DHT22;9417;16.484;102.872;2023-12-20T06:36:17;29.80;54.00
18575;DHT22;9417;16.484;102.872;2023-12-20T06:38:24;29.90;54.10
18575;DHT22;9417;16.484;102.872;2023-12-20T06:40:31;29.90;54.50
18575;DHT22;9417;16.484;102.872;2023-12-20T06:42:39;29.90;54.30
18575;DHT22;9417;16.484;102.872;2023-12-20T06:45:01;29.90;55.00
18575;DHT22;9417;16.484;102.872;2023-12-20T06:47:09;30.00;55.00
18575;DHT22;9417;16.484;102.872;2023-12-20T06:49:16;30.00;54.20
18575;DHT22;9417;16.484;102.872;2023-12-20T06:51:25;29.80;53.70
18575;DHT22;9417;16.484;102.872;2023-12-20T06:53:32;29.60;54.30
18575;DHT22;9417;16.484;102.872;2023-12-20T06:55:38;29.50;54.40
18575;DHT22;9417;16.484;102.872;2023-12-20T06:57:45;29.40;54.90
18575;DHT22;9417;16.484;102.872;2023-12-20T06:59:53;29.30;54.60
18575;DHT22;9417;16.484;102.872;2023-12-20T07:02:00;29.20;56.00
18575;DHT22;9417;16.484;102.872;2023-12-20T07:04:08;29.10;55.70
18575;DHT22;9417;16.484;102.872;2023-12-20T07:06:15;29.10;57.20
18575;DHT22;9417;16.484;102.872;2023-12-20T07:08:24;29.10;56.30
18575;DHT22;9417;16.484;102.872;2023-12-20T07:10:31;29.10;56.20
18575;DHT22;9417;16.484;102.872;2023-12-20T07:12:39;29.10;56.70
18575;DHT22;9417;16.484;102.872;2023-12-20T07:14:46;29.10;55.70
18575;DHT22;9417;16.484;102.872;2023-12-20T07:16:52;29.00;56.40
18575;DHT22;9417;16.484;102.872;2023-12-20T07:18:59;29.00;56.60
18575;DHT22;9417;16.484;102.872;2023-12-20T07:21:06;29.10;56.30
18575;DHT22;9417;16.484;102.872;2023-12-20T07:23:12;29.20;56.20
18575;DHT22;9417;16.484;102.872;2023-12-20T07:25:21;29.40;55.30
18575;DHT22;9417;16.484;102.872;2023-12-20T07:27:29;29.50;55.40
18575;DHT22;9417;16.484;102.872;2023-12-20T07:29:35;29.60;55.80
18575;DHT22;9417;16.484;102.872;2023-12-20T07:31:42;29.70;54.30
18575;DHT22;9417;16.484;102.872;2023-12-20T07:33:49;29.80;53.80
18575;DHT22;9417;16.484;102.872;2023-12-20T07:35:56;29.80;53.20
18575;DHT22;9417;16.484;102.872;2023-12-20T07:38:04;29.90;54.00
18575;DHT22;9417;16.484;102.872;2023-12-20T07:40:11;29.90;53.30
18575;DHT22;9417;16.484;102.872;2023-12-20T07:42:20;29.80;53.30
18575;DHT22;9417;16.484;102.872;2023-12-20T07:44:28;29.70;53.40
18575;DHT22;9417;16.484;102.872;2023-12-20T07:46:35;29.70;54.10
18575;DHT22;9417;16.484;102.872;2023-12-20T07:48:42;29.80;54.00
18575;DHT22;9417;16.484;102.872;2023-12-20T07:50:51;29.80;53.50
18575;DHT22;9417;16.484;102.872;2023-12-20T07:52:58;29.90;53.50
18575;DHT22;9417;16.484;102.872;2023-12-20T07:55:06;29.90;53.50
18575;DHT22;9417;16.484;102.872;2023-12-20T07:57:14;30.00;53.40
18575;DHT22;9417;16.484;102.872;2023-12-20T07:59:23;30.00;52.90
18575;DHT22;9417;16.484;102.872;2023-12-20T08:01:35;30.00;53.60
18575;DHT22;9417;16.484;102.872;2023-12-20T08:03:43;30.10;53.90
18575;DHT22;9417;16.484;102.872;2023-12-20T08:05:51;30.10;53.60
18575;DHT22;9417;16.484;102.872;2023-12-20T08:07:58;30.10;54.40
18575;DHT22;9417;16.484;102.872;2023-12-20T08:10:06;29.90;53.10
18575;DHT22;9417;16.484;102.872;2023-12-20T08:12:13;29.80;53.90
18575;DHT22;9417;16.484;102.872;2023-12-20T08:14:23;29.70;54.10
18575;DHT22;9417;16.484;102.872;2023-12-20T08:16:29;29.50;53.90
18575;DHT22;9417;16.484;102.872;2023-12-20T08:18:36;29.40;53.80
18575;DHT22;9417;16.484;102.872;2023-12-20T08:20:43;29.30;54.20
18575;DHT22;9417;16.484;102.872;2023-12-20T08:22:51;29.30;54.40
18575;DHT22;9417;16.484;102.872;2023-12-20T08:24:57;29.40;54.50
18575;DHT22;9417;16.484;102.872;2023-12-20T08:27:04;29.40;55.00
18575;DHT22;9417;16.484;102.872;2023-12-20T08:29:13;29.50;55.70
18575;DHT22;9417;16.484;102.872;2023-12-20T08:31:22;29.50;55.10
18575;DHT22;9417;16.484;102.872;2023-12-20T08:33:31;29.60;55.10
18575;DHT22;9417;16.484;102.872;2023-12-20T08:35:38;29.60;54.70
18575;DHT22;9417;16.484;102.872;2023-12-20T08:37:45;29.60;55.10
18575;DHT22;9417;16.484;102.872;2023-12-20T08:39:52;29.50;54.60
18575;DHT22;9417;16.484;102.872;2023-12-20T08:41:59;29.50;54.50
18575;DHT22;9417;16.484;102.872;2023-12-20T08:44:06;29.50;55.00
18575;DHT22;9417;16.484;102.872;2023-12-20T08:46:15;29.50;54.90
18575;DHT22;9417;16.484;102.872;2023-12-20T08:48:24;29.40;55.20
18575;DHT22;9417;16.484;102.872;2023-12-20T08:50:31;29.50;54.40
18575;DHT22;9417;16.484;102.872;2023-12-20T08:52:38;29.50;55.00
18575;DHT22;9417;16.484;102.872;2023-12-20T08:54:47;29.50;54.50
18575;DHT22;9417;16.484;102.872;2023-12-20T08:56:56;29.60;54.60
18575;DHT22;9417;16.484;102.872;2023-12-20T08:59:03;29.60;54.30
18575;DHT22;9417;16.484;102.872;2023-12-20T09:01:10;29.60;54.80
18575;DHT22;9417;16.484;102.872;2023-12-20T09:03:19;29.70;55.30
18575;DHT22;9417;16.484;102.872;2023-12-20T09:05:27;29.70;55.30
18575;DHT22;9417;16.484;102.872;2023-12-20T09:07:34;29.60;54.50
18575;DHT22;9417;16.484;102.872;2023-12-20T09:09:40;29.60;54.30
18575;DHT22;9417;16.484;102.872;2023-12-20T09:11:48;29.50;54.40
18575;DHT22;9417;16.484;102.872;2023-12-20T09:13:56;29.50;54.30
18575;DHT22;9417;16.484;102.872;2023-12-20T09:16:03;29.40;54.40
18575;DHT22;9417;16.484;102.872;2023-12-20T09:18:11;29.30;54.70
18575;DHT22;9417;16.484;102.872;2023-12-20T09:20:18;29.30;54.90
18575;DHT22;9417;16.484;102.872;2023-12-20T09:22:27;29.20;55.30
18575;DHT22;9417;16.484;102.872;2023-12-20T09:24:34;29.20;55.80
18575;DHT22;9417;16.484;102.872;2023-12-20T09:26:42;29.20;55.90
18575;DHT22;9417;16.484;102.872;2023-12-20T09:28:49;29.10;56.50
18575;DHT22;9417;16.484;102.872;2023-12-20T09:30:56;29.10;56.10
18575;DHT22;9417;16.484;102.872;2023-12-20T09:33:04;29.10;55.80
18575;DHT22;9417;16.484;102.872;2023-12-20T09:35:12;29.10;55.40
18575;DHT22;9417;16.484;102.872;2023-12-20T09:37:20;29.10;55.20
18575;DHT22;9417;16.484;102.872;2023-12-20T09:39:29;29.10;55.60
18575;DHT22;9417;16.484;102.872;2023-12-20T09:41:39;29.10;55.80
18575;DHT22;9417;16.484;102.872;2023-12-20T09:43:52;29.10;55.40
18575;DHT22;9417;16.484;102.872;2023-12-20T09:46:02;29.10;55.10
18575;DHT22;9417;16.484;102.872;2023-12-20T09:48:11;29.10;54.90
18575;DHT22;9417;16.484;102.872;2023-12-20T09:50:21;29.10;55.40
18575;DHT22;9417;16.484;102.872;2023-12-20T09:52:27;29.10;56.00
18575;DHT22;9417;16.484;102.872;2023-12-20T09:54:37;29.10;56.10
18575;DHT22;9417;16.484;102.872;2023-12-20T09:56:45;29.00;56.00
18575;DHT22;9417;16.484;102.872;2023-12-20T09:58:53;29.00;56.30
18575;DHT22;9417;16.484;102.872;2023-12-20T10:01:00;29.00;56.50
18575;DHT22;9417;16.484;102.872;2023-12-20T10:03:09;29.00;56.90
18575;DHT22;9417;16.484;102.872;2023-12-20T10:05:17;28.90;57.80
18575;DHT22;9417;16.484;102.872;2023-12-20T10:07:26;28.80;57.60
18575;DHT22;9417;16.484;102.872;2023-12-20T10:09:32;28.80;56.90
18575;DHT22;9417;16.484;102.872;2023-12-20T10:11:41;28.80;56.90
18575;DHT22;9417;16.484;102.872;2023-12-20T10:13:48;28.80;57.30
18575;DHT22;9417;16.484;102.872;2023-12-20T10:15:56;28.80;57.30
18575;DHT22;9417;16.484;102.872;2023-12-20T10:18:04;28.70;56.90
18575;DHT22;9417;16.484;102.872;2023-12-20T10:20:12;28.70;56.80
18575;DHT22;9417;16.484;102.872;2023-12-20T10:22:20;28.70;56.80
18575;DHT22;9417;16.484;102.872;2023-12-20T10:24:29;28.60;57.20
18575;DHT22;9417;16.484;102.872;2023-12-20T10:26:37;28.60;57.10
18575;DHT22;9417;16.484;102.872;2023-12-20T10:28:46;28.60;57.20
18575;DHT22;9417;16.484;102.872;2023-12-20T10:30:53;28.50;57.50
18575;DHT22;9417;16.484;102.872;2023-12-20T10:33:00;28.50;57.80
18575;DHT22;9417;16.484;102.872;2023-12-20T10:35:08;28.50;58.30
18575;DHT22;9417;16.484;102.872;2023-12-20T10:37:15;28.40;58.10
18575;DHT22;9417;16.484;102.872;2023-12-20T10:39:23;28.40;58.40
18575;DHT22;9417;16.484;102.872;2023-12-20T10:41:31;28.40;58.50
18575;DHT22;9417;16.484;102.872;2023-12-20T10:43:40;28.30;58.70
18575;DHT22;9417;16.484;102.872;2023-12-20T10:45:49;28.30;59.10
18575;DHT22;9417;16.484;102.872;2023-12-20T10:47:57;28.30;59.30
18575;DHT22;9417;16.484;102.872;2023-12-20T10:50:07;28.20;59.20
18575;DHT22;9417;16.484;102.872;2023-12-20T10:52:15;28.20;59.20
18575;DHT22;9417;16.484;102.872;2023-12-20T10:54:23;28.10;60.10
18575;DHT22;9417;16.484;102.872;2023-12-20T10:56:32;28.10;60.20
18575;DHT22;9417;16.484;102.872;2023-12-20T10:58:42;28.10;59.80
18575;DHT22;9417;16.484;102.872;2023-12-20T11:01:00;28.00;59.80
18575;DHT22;9417;16.484;102.872;2023-12-20T11:03:10;27.90;59.80
18575;DHT22;9417;16.484;102.872;2023-12-20T11:05:26;27.90;60.00
18575;DHT22;9417;16.484;102.872;2023-12-20T11:07:38;27.80;60.20
18575;DHT22;9417;16.484;102.872;2023-12-20T11:09:54;27.80;60.30
18575;DHT22;9417;16.484;102.872;2023-12-20T11:12:12;27.70;60.40
18575;DHT22;9417;16.484;102.872;2023-12-20T11:14:22;27.70;60.70
18575;DHT22;9417;16.484;102.872;2023-12-20T11:16:34;27.70;61.00
18575;DHT22;9417;16.484;102.872;2023-12-20T11:18:54;27.70;61.30
18575;DHT22;9417;16.484;102.872;2023-12-20T11:21:02;27.60;61.30
18575;DHT22;9417;16.484;102.872;2023-12-20T11:23:10;27.60;61.50
18575;DHT22;9417;16.484;102.872;2023-12-20T11:25:18;27.60;61.80
18575;DHT22;9417;16.484;102.872;2023-12-20T11:27:24;27.50;61.60
18575;DHT22;9417;16.484;102.872;2023-12-20T11:29:32;27.50;62.50
18575;DHT22;9417;16.484;102.872;2023-12-20T11:31:42;27.40;62.10
18575;DHT22;9417;16.484;102.872;2023-12-20T11:33:50;27.40;61.90
18575;DHT22;9417;16.484;102.872;2023-12-20T11:36:00;27.40;62.10
18575;DHT22;9417;16.484;102.872;2023-12-20T11:38:09;27.30;62.40
18575;DHT22;9417;16.484;102.872;2023-12-20T11:40:16;27.30;62.70
18575;DHT22;9417;16.484;102.872;2023-12-20T11:42:23;27.30;62.90
18575;DHT22;9417;16.484;102.872;2023-12-20T11:44:31;27.20;63.10
18575;DHT22;9417;16.484;102.872;2023-12-20T11:46:38;27.20;62.80
18575;DHT22;9417;16.484;102.872;2023-12-20T11:48:47;27.20;62.70
18575;DHT22;9417;16.484;102.872;2023-12-20T11:50:55;27.20;62.90
18575;DHT22;9417;16.484;102.872;2023-12-20T11:53:00;27.10;63.60
18575;DHT22;9417;16.484;102.872;2023-12-20T11:55:08;27.10;63.50
18575;DHT22;9417;16.484;102.872;2023-12-20T11:57:15;27.10;63.40
18575;DHT22;9417;16.484;102.872;2023-12-20T11:59:22;27.00;63.10
18575;DHT22;9417;16.484;102.872;2023-12-20T12:01:29;27.00;63.10
18575;DHT22;9417;16.484;102.872;2023-12-20T12:03:38;27.00;63.30
18575;DHT22;9417;16.484;102.872;2023-12-20T12:05:49;26.90;63.40
18575;DHT22;9417;16.484;102.872;2023-12-20T12:07:56;26.90;63.40
18575;DHT22;9417;16.484;102.872;2023-12-20T12:10:03;26.90;63.20
18575;DHT22;9417;16.484;102.872;2023-12-20T12:12:11;26.90;62.90
18575;DHT22;9417;16.484;102.872;2023-12-20T12:14:19;26.80;62.90
18575;DHT22;9417;16.484;102.872;2023-12-20T12:16:26;26.80;62.90
18575;DHT22;9417;16.484;102.872;2023-12-20T12:18:33;26.80;63.00
18575;DHT22;9417;16.484;102.872;2023-12-20T12:20:41;26.80;63.10
18575;DHT22;9417;16.484;102.872;2023-12-20T12:22:59;26.80;62.70
18575;DHT22;9417;16.484;102.872;2023-12-20T12:25:14;26.80;62.60
18575;DHT22;9417;16.484;102.872;2023-12-20T12:27:21;26.70;62.50
18575;DHT22;9417;16.484;102.872;2023-12-20T12:29:29;26.60;62.30
18575;DHT22;9417;16.484;102.872;2023-12-20T12:31:36;26.60;62.20
18575;DHT22;9417;16.484;102.872;2023-12-20T12:33:44;26.60;61.80
18575;DHT22;9417;16.484;102.872;2023-12-20T12:35:51;26.60;61.50
18575;DHT22;9417;16.484;102.872;2023-12-20T12:37:59;26.50;61.30
18575;DHT22;9417;16.484;102.872;2023-12-20T12:40:10;26.50;61.00
18575;DHT22;9417;16.484;102.872;2023-12-20T12:42:17;26.50;61.20
18575;DHT22;9417;16.484;102.872;2023-12-20T12:44:25;26.50;61.20
18575;DHT22;9417;16.484;102.872;2023-12-20T12:46:33;26.40;61.00
18575;DHT22;9417;16.484;102.872;2023-12-20T12:48:40;26.40;61.00
18575;DHT22;9417;16.484;102.872;2023-12-20T12:50:50;26.40;60.90
18575;DHT22;9417;16.484;102.872;2023-12-20T12:53:01;26.30;60.10
18575;DHT22;9417;16.484;102.872;2023-12-20T12:55:08;26.30;59.90
18575;DHT22;9417;16.484;102.872;2023-12-20T12:57:15;26.20;59.90
18575;DHT22;9417;16.484;102.872;2023-12-20T12:59:22;26.20;59.30
18575;DHT22;9417;16.484;102.872;2023-12-20T13:01:30;26.20;59.60
18575;DHT22;9417;16.484;102.872;2023-12-20T13:03:38;26.10;59.20
18575;DHT22;9417;16.484;102.872;2023-12-20T13:05:45;26.10;58.80
18575;DHT22;9417;16.484;102.872;2023-12-20T13:07:53;26.10;58.70
18575;DHT22;9417;16.484;102.872;2023-12-20T13:10:01;26.00;58.50
18575;DHT22;9417;16.484;102.872;2023-12-20T13:12:09;26.00;58.30
18575;DHT22;9417;16.484;102.872;2023-12-20T13:14:16;26.00;58.10